sensor_id;sensor_type;location;lat;lon;timestamp;P1;durP1;ratioP1;P2;durP2;ratioP2
16460;SDS011;8341;42.048;24.650;2023-01-26T00:01:53;15.40;;;7.50;;
16460;SDS011;8341;42.048;24.650;2023-01-26T00:04:20;24.70;;;15.20;;
16460;SDS011;8341;42.048;24.650;2023-01-26T00:06:47;25.07;;;14.53;;
16460;SDS011;8341;42.048;24.650;2023-01-26T00:09:14;20.80;;;12.03;;
16460;SDS011;8341;42.048;24.650;2023-01-26T00:11:41;13.17;;;7.90;;
16460;SDS011;8341;42.048;24.650;2023-01-26T00:14:08;13.03;;;8.53;;
16460;SDS011;8341;42.048;24.650;2023-01-26T00:16:35;12.57;;;7.43;;
16460;SDS011;8341;42.048;24.650;2023-01-26T00:19:04;14.53;;;7.97;;
16460;SDS011;8341;42.048;24.650;2023-01-26T00:21:32;13.97;;;8.00;;
16460;SDS011;8341;42.048;24.650;2023-01-26T00:23:59;15.33;;;8.47;;
16460;SDS011;8341;42.048;24.650;2023-01-26T00:26:26;14.83;;;8.03;;
16460;SDS011;8341;42.048;24.650;2023-01-26T00:28:53;15.80;;;9.50;;
16460;SDS011;8341;42.048;24.650;2023-01-26T00:31:21;15.33;;;8.47;;
16460;SDS011;8341;42.048;24.650;2023-01-26T00:33:50;11.47;;;6.90;;
16460;SDS011;8341;42.048;24.650;2023-01-26T00:36:19;9.87;;;6.87;;
16460;SDS011;8341;42.048;24.650;2023-01-26T00:38:46;11.00;;;6.97;;
16460;SDS011;8341;42.048;24.650;2023-01-26T00:41:14;11.17;;;7.17;;
16460;SDS011;8341;42.048;24.650;2023-01-26T00:43:55;11.17;;;6.53;;
16460;SDS011;8341;42.048;24.650;2023-01-26T00:46:22;12.60;;;6.63;;
16460;SDS011;8341;42.048;24.650;2023-01-26T00:48:50;12.03;;;7.57;;
16460;SDS011;8341;42.048;24.650;2023-01-26T00:51:19;13.90;;;8.30;;
16460;SDS011;8341;42.048;24.650;2023-01-26T00:53:45;11.53;;;7.83;;
16460;SDS011;8341;42.048;24.650;2023-01-26T00:56:12;12.67;;;8.33;;
16460;SDS011;8341;42.048;24.650;2023-01-26T00:58:40;12.53;;;7.03;;
16460;SDS011;8341;42.048;24.650;2023-01-26T01:01:09;13.43;;;7.67;;
16460;SDS011;8341;42.048;24.650;2023-01-26T01:03:37;12.37;;;7.50;;
16460;SDS011;8341;42.048;24.650;2023-01-26T01:06:04;13.03;;;7.20;;
16460;SDS011;8341;42.048;24.650;2023-01-26T01:08:32;13.43;;;7.53;;
16460;SDS011;8341;42.048;24.650;2023-01-26T01:11:03;15.27;;;8.03;;
16460;SDS011;8341;42.048;24.650;2023-01-26T01:13:31;12.63;;;7.37;;
16460;SDS011;8341;42.048;24.650;2023-01-26T01:15:59;12.70;;;7.40;;
16460;SDS011;8341;42.048;24.650;2023-01-26T01:18:26;12.07;;;7.87;;
16460;SDS011;8341;42.048;24.650;2023-01-26T01:20:53;13.90;;;7.80;;
16460;SDS011;8341;42.048;24.650;2023-01-26T01:23:20;14.83;;;7.60;;
16460;SDS011;8341;42.048;24.650;2023-01-26T01:25:56;12.93;;;7.57;;
16460;SDS011;8341;42.048;24.650;2023-01-26T01:28:23;13.53;;;7.83;;
16460;SDS011;8341;42.048;24.650;2023-01-26T01:30:50;13.50;;;7.73;;
16460;SDS011;8341;42.048;24.650;2023-01-26T01:33:18;17.50;;;9.83;;
16460;SDS011;8341;42.048;24.650;2023-01-26T01:35:54;17.57;;;10.77;;
16460;SDS011;8341;42.048;24.650;2023-01-26T01:38:21;20.30;;;10.30;;
16460;SDS011;8341;42.048;24.650;2023-01-26T01:40:48;18.83;;;9.53;;
16460;SDS011;8341;42.048;24.650;2023-01-26T01:43:18;25.77;;;12.13;;
16460;SDS011;8341;42.048;24.650;2023-01-26T01:45:45;16.47;;;9.40;;
16460;SDS011;8341;42.048;24.650;2023-01-26T01:48:20;18.83;;;10.60;;
16460;SDS011;8341;42.048;24.650;2023-01-26T01:50:51;17.50;;;9.43;;
16460;SDS011;8341;42.048;24.650;2023-01-26T01:53:21;15.63;;;8.97;;
16460;SDS011;8341;42.048;24.650;2023-01-26T01:55:52;14.40;;;8.30;;
16460;SDS011;8341;42.048;24.650;2023-01-26T01:58:23;16.50;;;8.27;;
16460;SDS011;8341;42.048;24.650;2023-01-26T02:00:52;16.97;;;9.20;;
16460;SDS011;8341;42.048;24.650;2023-01-26T02:03:19;16.43;;;9.37;;
16460;SDS011;8341;42.048;24.650;2023-01-26T02:05:51;17.00;;;9.47;;
16460;SDS011;8341;42.048;24.650;2023-01-26T02:08:23;14.90;;;9.20;;
16460;SDS011;8341;42.048;24.650;2023-01-26T02:10:55;16.50;;;9.83;;
16460;SDS011;8341;42.048;24.650;2023-01-26T02:13:27;15.57;;;9.00;;
16460;SDS011;8341;42.048;24.650;2023-01-26T02:15:57;14.67;;;8.90;;
16460;SDS011;8341;42.048;24.650;2023-01-26T02:18:25;14.43;;;8.67;;
16460;SDS011;8341;42.048;24.650;2023-01-26T02:20:53;13.77;;;8.07;;
16460;SDS011;8341;42.048;24.650;2023-01-26T02:23:30;11.00;;;7.53;;
16460;SDS011;8341;42.048;24.650;2023-01-26T02:26:08;13.70;;;7.97;;
16460;SDS011;8341;42.048;24.650;2023-01-26T02:28:38;12.07;;;7.53;;
16460;SDS011;8341;42.048;24.650;2023-01-26T02:31:06;12.93;;;7.73;;
16460;SDS011;8341;42.048;24.650;2023-01-26T02:33:35;13.60;;;7.83;;
16460;SDS011;8341;42.048;24.650;2023-01-26T02:36:03;14.37;;;8.23;;
16460;SDS011;8341;42.048;24.650;2023-01-26T02:38:33;13.97;;;8.13;;
16460;SDS011;8341;42.048;24.650;2023-01-26T02:41:06;16.07;;;7.20;;
16460;SDS011;8341;42.048;24.650;2023-01-26T02:43:36;13.83;;;8.43;;
16460;SDS011;8341;42.048;24.650;2023-01-26T02:46:03;16.70;;;8.50;;
16460;SDS011;8341;42.048;24.650;2023-01-26T02:48:30;19.97;;;9.03;;
16460;SDS011;8341;42.048;24.650;2023-01-26T02:51:12;17.33;;;8.60;;
16460;SDS011;8341;42.048;24.650;2023-01-26T02:53:39;10.73;;;6.60;;
16460;SDS011;8341;42.048;24.650;2023-01-26T02:56:06;12.00;;;7.40;;
16460;SDS011;8341;42.048;24.650;2023-01-26T02:58:33;13.47;;;6.97;;
16460;SDS011;8341;42.048;24.650;2023-01-26T03:01:00;11.40;;;6.83;;
16460;SDS011;8341;42.048;24.650;2023-01-26T03:03:27;16.77;;;8.73;;
16460;SDS011;8341;42.048;24.650;2023-01-26T03:06:10;12.17;;;7.13;;
16460;SDS011;8341;42.048;24.650;2023-01-26T03:08:38;14.27;;;7.87;;
16460;SDS011;8341;42.048;24.650;2023-01-26T03:11:05;17.37;;;8.90;;
16460;SDS011;8341;42.048;24.650;2023-01-26T03:13:35;17.43;;;9.60;;
16460;SDS011;8341;42.048;24.650;2023-01-26T03:16:05;15.50;;;9.33;;
16460;SDS011;8341;42.048;24.650;2023-01-26T03:18:32;17.73;;;10.17;;
16460;SDS011;8341;42.048;24.650;2023-01-26T03:21:32;16.00;;;8.77;;
16460;SDS011;8341;42.048;24.650;2023-01-26T03:24:17;18.40;;;9.47;;
16460;SDS011;8341;42.048;24.650;2023-01-26T03:27:01;15.93;;;9.43;;
16460;SDS011;8341;42.048;24.650;2023-01-26T03:29:47;16.00;;;9.23;;
16460;SDS011;8341;42.048;24.650;2023-01-26T03:32:14;16.27;;;8.87;;
16460;SDS011;8341;42.048;24.650;2023-01-26T03:34:41;17.00;;;9.37;;
16460;SDS011;8341;42.048;24.650;2023-01-26T03:37:09;15.23;;;9.43;;
16460;SDS011;8341;42.048;24.650;2023-01-26T03:39:36;15.97;;;9.67;;
16460;SDS011;8341;42.048;24.650;2023-01-26T03:42:21;15.13;;;9.17;;
16460;SDS011;8341;42.048;24.650;2023-01-26T03:45:08;17.63;;;9.00;;
16460;SDS011;8341;42.048;24.650;2023-01-26T03:47:53;15.30;;;9.10;;
16460;SDS011;8341;42.048;24.650;2023-01-26T03:50:46;17.33;;;9.33;;
16460;SDS011;8341;42.048;24.650;2023-01-26T03:53:30;13.27;;;7.67;;
16460;SDS011;8341;42.048;24.650;2023-01-26T03:56:14;12.73;;;7.93;;
16460;SDS011;8341;42.048;24.650;2023-01-26T03:58:46;15.70;;;8.40;;
16460;SDS011;8341;42.048;24.650;2023-01-26T04:01:15;15.23;;;8.20;;
16460;SDS011;8341;42.048;24.650;2023-01-26T04:03:45;18.33;;;9.63;;
16460;SDS011;8341;42.048;24.650;2023-01-26T04:06:31;15.87;;;8.33;;
16460;SDS011;8341;42.048;24.650;2023-01-26T04:09:15;15.43;;;8.10;;
16460;SDS011;8341;42.048;24.650;2023-01-26T04:11:43;16.60;;;9.50;;
16460;SDS011;8341;42.048;24.650;2023-01-26T04:14:10;19.13;;;10.97;;
16460;SDS011;8341;42.048;24.650;2023-01-26T04:16:57;18.10;;;10.20;;
16460;SDS011;8341;42.048;24.650;2023-01-26T04:19:42;14.27;;;8.73;;
16460;SDS011;8341;42.048;24.650;2023-01-26T04:22:26;21.00;;;10.73;;
16460;SDS011;8341;42.048;24.650;2023-01-26T04:24:53;20.83;;;12.57;;
16460;SDS011;8341;42.048;24.650;2023-01-26T04:27:21;19.70;;;10.53;;
16460;SDS011;8341;42.048;24.650;2023-01-26T04:29:49;21.43;;;10.97;;
16460;SDS011;8341;42.048;24.650;2023-01-26T04:32:17;19.03;;;10.10;;
16460;SDS011;8341;42.048;24.650;2023-01-26T04:34:44;18.83;;;10.57;;
16460;SDS011;8341;42.048;24.650;2023-01-26T04:37:11;21.87;;;10.03;;
16460;SDS011;8341;42.048;24.650;2023-01-26T04:39:39;19.77;;;11.27;;
16460;SDS011;8341;42.048;24.650;2023-01-26T04:42:06;20.73;;;11.37;;
16460;SDS011;8341;42.048;24.650;2023-01-26T04:44:33;20.13;;;11.77;;
16460;SDS011;8341;42.048;24.650;2023-01-26T04:47:01;20.87;;;11.33;;
16460;SDS011;8341;42.048;24.650;2023-01-26T04:49:29;22.30;;;12.03;;
16460;SDS011;8341;42.048;24.650;2023-01-26T04:51:56;20.63;;;11.67;;
16460;SDS011;8341;42.048;24.650;2023-01-26T04:54:23;20.07;;;11.90;;
16460;SDS011;8341;42.048;24.650;2023-01-26T04:56:51;21.60;;;11.80;;
16460;SDS011;8341;42.048;24.650;2023-01-26T04:59:18;23.13;;;11.80;;
16460;SDS011;8341;42.048;24.650;2023-01-26T05:01:45;20.77;;;11.40;;
16460;SDS011;8341;42.048;24.650;2023-01-26T05:04:12;27.10;;;12.47;;
16460;SDS011;8341;42.048;24.650;2023-01-26T05:06:40;22.03;;;11.53;;
16460;SDS011;8341;42.048;24.650;2023-01-26T05:09:08;21.90;;;11.17;;
16460;SDS011;8341;42.048;24.650;2023-01-26T05:11:35;19.93;;;11.67;;
16460;SDS011;8341;42.048;24.650;2023-01-26T05:14:02;21.97;;;10.83;;
16460;SDS011;8341;42.048;24.650;2023-01-26T05:16:29;19.30;;;11.07;;
16460;SDS011;8341;42.048;24.650;2023-01-26T05:18:57;22.13;;;12.93;;
16460;SDS011;8341;42.048;24.650;2023-01-26T05:21:24;20.00;;;11.20;;
16460;SDS011;8341;42.048;24.650;2023-01-26T05:23:53;16.73;;;10.60;;
16460;SDS011;8341;42.048;24.650;2023-01-26T05:26:20;20.13;;;10.67;;
16460;SDS011;8341;42.048;24.650;2023-01-26T05:28:47;20.67;;;11.27;;
16460;SDS011;8341;42.048;24.650;2023-01-26T05:31:14;22.83;;;11.67;;
16460;SDS011;8341;42.048;24.650;2023-01-26T05:33:41;22.20;;;11.30;;
16460;SDS011;8341;42.048;24.650;2023-01-26T05:36:09;20.57;;;11.33;;
16460;SDS011;8341;42.048;24.650;2023-01-26T05:38:36;17.90;;;11.17;;
16460;SDS011;8341;42.048;24.650;2023-01-26T05:41:05;24.67;;;12.27;;
16460;SDS011;8341;42.048;24.650;2023-01-26T05:43:32;26.50;;;13.60;;
16460;SDS011;8341;42.048;24.650;2023-01-26T05:45:59;25.10;;;12.27;;
16460;SDS011;8341;42.048;24.650;2023-01-26T05:48:26;21.43;;;11.90;;
16460;SDS011;8341;42.048;24.650;2023-01-26T05:50:54;23.20;;;12.90;;
16460;SDS011;8341;42.048;24.650;2023-01-26T05:53:22;24.43;;;13.87;;
16460;SDS011;8341;42.048;24.650;2023-01-26T05:55:50;27.80;;;13.97;;
16460;SDS011;8341;42.048;24.650;2023-01-26T05:58:18;26.37;;;14.57;;
16460;SDS011;8341;42.048;24.650;2023-01-26T06:00:45;24.67;;;13.47;;
16460;SDS011;8341;42.048;24.650;2023-01-26T06:03:12;26.07;;;14.30;;
16460;SDS011;8341;42.048;24.650;2023-01-26T06:05:39;27.77;;;14.50;;
16460;SDS011;8341;42.048;24.650;2023-01-26T06:08:06;25.80;;;13.20;;
16460;SDS011;8341;42.048;24.650;2023-01-26T06:10:33;25.57;;;12.50;;
16460;SDS011;8341;42.048;24.650;2023-01-26T06:13:00;26.07;;;13.20;;
16460;SDS011;8341;42.048;24.650;2023-01-26T06:15:29;23.40;;;12.53;;
16460;SDS011;8341;42.048;24.650;2023-01-26T06:17:56;21.93;;;12.30;;
16460;SDS011;8341;42.048;24.650;2023-01-26T06:20:25;21.63;;;12.10;;
16460;SDS011;8341;42.048;24.650;2023-01-26T06:22:52;21.67;;;12.13;;
16460;SDS011;8341;42.048;24.650;2023-01-26T06:25:20;20.87;;;12.50;;
16460;SDS011;8341;42.048;24.650;2023-01-26T06:27:47;20.23;;;11.40;;
16460;SDS011;8341;42.048;24.650;2023-01-26T06:30:14;23.83;;;12.77;;
16460;SDS011;8341;42.048;24.650;2023-01-26T06:32:43;21.33;;;11.43;;
16460;SDS011;8341;42.048;24.650;2023-01-26T06:35:12;19.17;;;10.80;;
16460;SDS011;8341;42.048;24.650;2023-01-26T06:37:39;19.40;;;11.00;;
16460;SDS011;8341;42.048;24.650;2023-01-26T06:40:07;19.23;;;10.77;;
16460;SDS011;8341;42.048;24.650;2023-01-26T06:42:35;19.50;;;10.33;;
16460;SDS011;8341;42.048;24.650;2023-01-26T06:45:02;20.80;;;10.90;;
16460;SDS011;8341;42.048;24.650;2023-01-26T06:47:29;17.93;;;10.77;;
16460;SDS011;8341;42.048;24.650;2023-01-26T06:49:58;18.27;;;10.50;;
16460;SDS011;8341;42.048;24.650;2023-01-26T06:52:26;22.50;;;11.63;;
16460;SDS011;8341;42.048;24.650;2023-01-26T06:54:55;17.93;;;11.13;;
16460;SDS011;8341;42.048;24.650;2023-01-26T06:57:24;21.37;;;11.30;;
16460;SDS011;8341;42.048;24.650;2023-01-26T06:59:51;24.17;;;11.60;;
16460;SDS011;8341;42.048;24.650;2023-01-26T07:02:20;23.73;;;12.60;;
16460;SDS011;8341;42.048;24.650;2023-01-26T07:04:47;28.07;;;13.93;;
16460;SDS011;8341;42.048;24.650;2023-01-26T07:07:17;26.27;;;14.77;;
16460;SDS011;8341;42.048;24.650;2023-01-26T07:09:44;24.40;;;13.63;;
16460;SDS011;8341;42.048;24.650;2023-01-26T07:12:11;27.07;;;13.73;;
16460;SDS011;8341;42.048;24.650;2023-01-26T07:14:38;24.57;;;13.27;;
16460;SDS011;8341;42.048;24.650;2023-01-26T07:17:05;23.70;;;13.40;;
16460;SDS011;8341;42.048;24.650;2023-01-26T07:19:32;21.80;;;12.10;;
16460;SDS011;8341;42.048;24.650;2023-01-26T07:21:59;26.37;;;13.60;;
16460;SDS011;8341;42.048;24.650;2023-01-26T07:24:28;28.30;;;14.50;;
16460;SDS011;8341;42.048;24.650;2023-01-26T07:26:55;30.07;;;15.53;;
16460;SDS011;8341;42.048;24.650;2023-01-26T07:29:23;26.70;;;14.10;;
16460;SDS011;8341;42.048;24.650;2023-01-26T07:31:50;23.43;;;12.80;;
16460;SDS011;8341;42.048;24.650;2023-01-26T07:34:18;28.97;;;14.17;;
16460;SDS011;8341;42.048;24.650;2023-01-26T07:36:45;24.17;;;13.53;;
16460;SDS011;8341;42.048;24.650;2023-01-26T07:39:16;25.97;;;13.67;;
16460;SDS011;8341;42.048;24.650;2023-01-26T07:41:45;25.10;;;13.47;;
16460;SDS011;8341;42.048;24.650;2023-01-26T07:44:12;27.00;;;13.90;;
16460;SDS011;8341;42.048;24.650;2023-01-26T07:46:39;28.80;;;14.30;;
16460;SDS011;8341;42.048;24.650;2023-01-26T07:49:12;25.03;;;14.23;;
16460;SDS011;8341;42.048;24.650;2023-01-26T07:51:39;26.77;;;14.27;;
16460;SDS011;8341;42.048;24.650;2023-01-26T07:54:06;27.33;;;15.10;;
16460;SDS011;8341;42.048;24.650;2023-01-26T07:56:37;29.37;;;15.17;;
16460;SDS011;8341;42.048;24.650;2023-01-26T07:59:05;30.67;;;14.77;;
16460;SDS011;8341;42.048;24.650;2023-01-26T08:01:32;31.40;;;15.00;;
16460;SDS011;8341;42.048;24.650;2023-01-26T08:03:59;31.70;;;15.70;;
16460;SDS011;8341;42.048;24.650;2023-01-26T08:06:26;30.97;;;16.67;;
16460;SDS011;8341;42.048;24.650;2023-01-26T08:08:53;34.00;;;17.60;;
16460;SDS011;8341;42.048;24.650;2023-01-26T08:11:21;31.67;;;16.83;;
16460;SDS011;8341;42.048;24.650;2023-01-26T08:13:50;34.20;;;17.90;;
16460;SDS011;8341;42.048;24.650;2023-01-26T08:16:18;32.27;;;18.43;;
16460;SDS011;8341;42.048;24.650;2023-01-26T08:18:46;33.77;;;17.33;;
16460;SDS011;8341;42.048;24.650;2023-01-26T08:21:14;34.23;;;18.60;;
16460;SDS011;8341;42.048;24.650;2023-01-26T08:23:42;31.40;;;17.07;;
16460;SDS011;8341;42.048;24.650;2023-01-26T08:26:13;29.83;;;17.23;;
16460;SDS011;8341;42.048;24.650;2023-01-26T08:28:42;35.67;;;17.70;;
16460;SDS011;8341;42.048;24.650;2023-01-26T08:31:10;35.60;;;16.70;;
16460;SDS011;8341;42.048;24.650;2023-01-26T08:33:40;37.87;;;18.73;;
16460;SDS011;8341;42.048;24.650;2023-01-26T08:36:09;35.83;;;19.30;;
16460;SDS011;8341;42.048;24.650;2023-01-26T08:38:38;32.33;;;17.20;;
16460;SDS011;8341;42.048;24.650;2023-01-26T08:41:05;39.63;;;19.70;;
16460;SDS011;8341;42.048;24.650;2023-01-26T08:43:32;40.53;;;19.30;;
16460;SDS011;8341;42.048;24.650;2023-01-26T08:46:00;39.17;;;21.47;;
16460;SDS011;8341;42.048;24.650;2023-01-26T08:48:28;45.73;;;26.03;;
16460;SDS011;8341;42.048;24.650;2023-01-26T08:50:58;51.93;;;26.50;;
16460;SDS011;8341;42.048;24.650;2023-01-26T08:53:26;45.03;;;23.60;;
16460;SDS011;8341;42.048;24.650;2023-01-26T08:55:56;46.33;;;24.10;;
16460;SDS011;8341;42.048;24.650;2023-01-26T08:58:23;38.23;;;21.07;;
16460;SDS011;8341;42.048;24.650;2023-01-26T09:00:50;40.17;;;22.50;;
16460;SDS011;8341;42.048;24.650;2023-01-26T09:03:18;45.17;;;22.27;;
16460;SDS011;8341;42.048;24.650;2023-01-26T09:05:45;45.40;;;22.47;;
16460;SDS011;8341;42.048;24.650;2023-01-26T09:08:14;47.30;;;25.30;;
16460;SDS011;8341;42.048;24.650;2023-01-26T09:10:41;37.87;;;20.37;;
16460;SDS011;8341;42.048;24.650;2023-01-26T09:13:09;30.23;;;16.30;;
16460;SDS011;8341;42.048;24.650;2023-01-26T09:15:36;48.73;;;24.63;;
16460;SDS011;8341;42.048;24.650;2023-01-26T09:18:04;37.13;;;20.77;;
16460;SDS011;8341;42.048;24.650;2023-01-26T09:20:31;27.67;;;12.87;;
16460;SDS011;8341;42.048;24.650;2023-01-26T09:22:58;23.27;;;13.00;;
16460;SDS011;8341;42.048;24.650;2023-01-26T09:25:26;21.10;;;11.10;;
16460;SDS011;8341;42.048;24.650;2023-01-26T09:27:54;43.97;;;12.60;;
16460;SDS011;8341;42.048;24.650;2023-01-26T09:30:21;40.43;;;12.43;;
16460;SDS011;8341;42.048;24.650;2023-01-26T09:32:49;19.90;;;10.77;;
16460;SDS011;8341;42.048;24.650;2023-01-26T09:35:16;127.70;;;23.73;;
16460;SDS011;8341;42.048;24.650;2023-01-26T09:37:43;36.43;;;17.77;;
16460;SDS011;8341;42.048;24.650;2023-01-26T09:40:13;340.40;;;24.13;;
16460;SDS011;8341;42.048;24.650;2023-01-26T09:42:47;107.23;;;15.60;;
16460;SDS011;8341;42.048;24.650;2023-01-26T09:45:25;103.07;;;15.23;;
16460;SDS011;8341;42.048;24.650;2023-01-26T09:48:06;51.63;;;15.00;;
16460;SDS011;8341;42.048;24.650;2023-01-26T09:50:43;114.80;;;20.40;;
16460;SDS011;8341;42.048;24.650;2023-01-26T09:53:18;33.40;;;13.23;;
16460;SDS011;8341;42.048;24.650;2023-01-26T09:55:50;95.10;;;17.13;;
16460;SDS011;8341;42.048;24.650;2023-01-26T09:58:21;173.57;;;19.37;;
16460;SDS011;8341;42.048;24.650;2023-01-26T10:01:00;91.43;;;19.83;;
16460;SDS011;8341;42.048;24.650;2023-01-26T10:03:29;162.27;;;21.83;;
16460;SDS011;8341;42.048;24.650;2023-01-26T10:06:03;111.13;;;15.10;;
16460;SDS011;8341;42.048;24.650;2023-01-26T10:08:39;147.03;;;19.60;;
16460;SDS011;8341;42.048;24.650;2023-01-26T10:11:10;80.70;;;15.07;;
16460;SDS011;8341;42.048;24.650;2023-01-26T10:13:47;22.10;;;11.07;;
16460;SDS011;8341;42.048;24.650;2023-01-26T10:16:18;18.57;;;9.87;;
16460;SDS011;8341;42.048;24.650;2023-01-26T10:18:50;137.60;;;17.33;;
16460;SDS011;8341;42.048;24.650;2023-01-26T10:21:21;80.67;;;16.37;;
16460;SDS011;8341;42.048;24.650;2023-01-26T10:23:52;61.60;;;13.37;;
16460;SDS011;8341;42.048;24.650;2023-01-26T10:26:29;142.23;;;15.30;;
16460;SDS011;8341;42.048;24.650;2023-01-26T10:29:13;32.40;;;11.13;;
16460;SDS011;8341;42.048;24.650;2023-01-26T10:31:58;20.27;;;10.93;;
16460;SDS011;8341;42.048;24.650;2023-01-26T10:35:20;54.27;;;13.67;;
16460;SDS011;8341;42.048;24.650;2023-01-26T10:44:02;85.13;;;15.27;;
16460;SDS011;8341;42.048;24.650;2023-01-26T10:47:16;109.27;;;16.10;;
16460;SDS011;8341;42.048;24.650;2023-01-26T10:49:45;143.20;;;17.20;;
16460;SDS011;8341;42.048;24.650;2023-01-26T10:52:14;346.87;;;23.63;;
16460;SDS011;8341;42.048;24.650;2023-01-26T10:54:42;170.33;;;18.27;;
16460;SDS011;8341;42.048;24.650;2023-01-26T10:57:21;93.43;;;14.23;;
16460;SDS011;8341;42.048;24.650;2023-01-26T10:59:53;318.00;;;23.47;;
16460;SDS011;8341;42.048;24.650;2023-01-26T11:02:25;37.37;;;14.00;;
16460;SDS011;8341;42.048;24.650;2023-01-26T11:05:15;42.77;;;13.27;;
16460;SDS011;8341;42.048;24.650;2023-01-26T11:07:46;174.83;;;17.50;;
16460;SDS011;8341;42.048;24.650;2023-01-26T11:10:15;240.97;;;22.77;;
16460;SDS011;8341;42.048;24.650;2023-01-26T11:12:48;28.37;;;14.13;;
16460;SDS011;8341;42.048;24.650;2023-01-26T11:15:17;121.17;;;17.00;;
16460;SDS011;8341;42.048;24.650;2023-01-26T11:17:52;32.57;;;14.17;;
16460;SDS011;8341;42.048;24.650;2023-01-26T11:20:34;35.47;;;13.90;;
16460;SDS011;8341;42.048;24.650;2023-01-26T11:23:11;29.73;;;14.47;;
16460;SDS011;8341;42.048;24.650;2023-01-26T11:25:49;30.80;;;14.47;;
16460;SDS011;8341;42.048;24.650;2023-01-26T11:28:33;28.67;;;14.43;;
16460;SDS011;8341;42.048;24.650;2023-01-26T11:31:15;29.97;;;14.03;;
16460;SDS011;8341;42.048;24.650;2023-01-26T11:33:58;28.17;;;14.60;;
16460;SDS011;8341;42.048;24.650;2023-01-26T11:36:38;43.77;;;13.87;;
16460;SDS011;8341;42.048;24.650;2023-01-26T11:39:16;47.20;;;14.20;;
16460;SDS011;8341;42.048;24.650;2023-01-26T11:41:53;30.50;;;14.30;;
16460;SDS011;8341;42.048;24.650;2023-01-26T11:44:35;41.47;;;15.67;;
16460;SDS011;8341;42.048;24.650;2023-01-26T11:47:27;31.63;;;15.33;;
16460;SDS011;8341;42.048;24.650;2023-01-26T11:50:12;30.73;;;14.43;;
16460;SDS011;8341;42.048;24.650;2023-01-26T11:53:01;31.10;;;14.03;;
16460;SDS011;8341;42.048;24.650;2023-01-26T11:55:46;29.37;;;14.67;;
16460;SDS011;8341;42.048;24.650;2023-01-26T11:58:26;30.07;;;14.87;;
16460;SDS011;8341;42.048;24.650;2023-01-26T12:00:58;30.83;;;15.60;;
16460;SDS011;8341;42.048;24.650;2023-01-26T12:03:29;29.80;;;14.93;;
16460;SDS011;8341;42.048;24.650;2023-01-26T12:06:06;29.47;;;15.67;;
16460;SDS011;8341;42.048;24.650;2023-01-26T12:08:39;29.17;;;15.30;;
16460;SDS011;8341;42.048;24.650;2023-01-26T12:11:12;28.40;;;15.03;;
16460;SDS011;8341;42.048;24.650;2023-01-26T12:13:49;27.53;;;14.40;;
16460;SDS011;8341;42.048;24.650;2023-01-26T12:16:24;27.77;;;13.87;;
16460;SDS011;8341;42.048;24.650;2023-01-26T12:18:58;25.87;;;13.70;;
16460;SDS011;8341;42.048;24.650;2023-01-26T12:21:36;26.23;;;13.43;;
16460;SDS011;8341;42.048;24.650;2023-01-26T12:24:07;25.47;;;13.47;;
16460;SDS011;8341;42.048;24.650;2023-01-26T12:26:41;28.17;;;15.40;;
16460;SDS011;8341;42.048;24.650;2023-01-26T12:29:13;26.87;;;14.60;;
16460;SDS011;8341;42.048;24.650;2023-01-26T12:31:45;27.20;;;14.37;;
16460;SDS011;8341;42.048;24.650;2023-01-26T12:34:16;34.43;;;17.73;;
16460;SDS011;8341;42.048;24.650;2023-01-26T12:36:50;25.30;;;14.23;;
16460;SDS011;8341;42.048;24.650;2023-01-26T12:39:27;26.40;;;14.40;;
16460;SDS011;8341;42.048;24.650;2023-01-26T12:42:06;28.87;;;14.93;;
16460;SDS011;8341;42.048;24.650;2023-01-26T12:44:43;29.27;;;15.03;;
16460;SDS011;8341;42.048;24.650;2023-01-26T12:47:13;32.87;;;16.10;;
16460;SDS011;8341;42.048;24.650;2023-01-26T12:49:45;29.37;;;15.27;;
16460;SDS011;8341;42.048;24.650;2023-01-26T12:52:20;30.60;;;16.50;;
16460;SDS011;8341;42.048;24.650;2023-01-26T12:54:53;30.83;;;16.10;;
16460;SDS011;8341;42.048;24.650;2023-01-26T12:57:25;33.53;;;16.37;;
16460;SDS011;8341;42.048;24.650;2023-01-26T13:00:03;34.17;;;16.33;;
16460;SDS011;8341;42.048;24.650;2023-01-26T13:02:33;31.90;;;17.40;;
16460;SDS011;8341;42.048;24.650;2023-01-26T13:05:02;33.57;;;16.50;;
16460;SDS011;8341;42.048;24.650;2023-01-26T13:07:34;33.10;;;16.33;;
16460;SDS011;8341;42.048;24.650;2023-01-26T13:10:17;31.77;;;17.03;;
16460;SDS011;8341;42.048;24.650;2023-01-26T13:12:51;32.60;;;16.13;;
16460;SDS011;8341;42.048;24.650;2023-01-26T13:15:21;35.57;;;16.63;;
16460;SDS011;8341;42.048;24.650;2023-01-26T13:17:51;31.63;;;16.37;;
16460;SDS011;8341;42.048;24.650;2023-01-26T13:26:23;28.10;;;14.43;;
16460;SDS011;8341;42.048;24.650;2023-01-26T13:35:06;31.23;;;15.57;;
16460;SDS011;8341;42.048;24.650;2023-01-26T13:37:40;39.60;;;17.13;;
16460;SDS011;8341;42.048;24.650;2023-01-26T13:40:17;30.50;;;15.93;;
16460;SDS011;8341;42.048;24.650;2023-01-26T13:42:48;34.70;;;15.37;;
16460;SDS011;8341;42.048;24.650;2023-01-26T13:45:22;69.50;;;25.20;;
16460;SDS011;8341;42.048;24.650;2023-01-26T13:47:56;42.93;;;21.17;;
16460;SDS011;8341;42.048;24.650;2023-01-26T13:50:28;139.63;;;23.83;;
16460;SDS011;8341;42.048;24.650;2023-01-26T13:52:56;43.00;;;19.47;;
16460;SDS011;8341;42.048;24.650;2023-01-26T13:55:25;50.07;;;26.07;;
16460;SDS011;8341;42.048;24.650;2023-01-26T14:00:56;65.63;;;37.73;;
16460;SDS011;8341;42.048;24.650;2023-01-26T14:03:23;39.10;;;19.67;;
16460;SDS011;8341;42.048;24.650;2023-01-26T14:05:51;33.73;;;16.10;;
16460;SDS011;8341;42.048;24.650;2023-01-26T14:08:20;33.37;;;18.10;;
16460;SDS011;8341;42.048;24.650;2023-01-26T14:10:50;34.10;;;17.33;;
16460;SDS011;8341;42.048;24.650;2023-01-26T14:13:18;35.40;;;16.70;;
16460;SDS011;8341;42.048;24.650;2023-01-26T14:15:55;32.27;;;15.27;;
16460;SDS011;8341;42.048;24.650;2023-01-26T14:18:24;100.00;;;22.07;;
16460;SDS011;8341;42.048;24.650;2023-01-26T14:20:57;77.60;;;20.70;;
16460;SDS011;8341;42.048;24.650;2023-01-26T14:23:26;43.43;;;18.67;;
16460;SDS011;8341;42.048;24.650;2023-01-26T14:25:59;34.03;;;17.27;;
16460;SDS011;8341;42.048;24.650;2023-01-26T14:28:30;31.90;;;16.47;;
16460;SDS011;8341;42.048;24.650;2023-01-26T14:31:00;47.23;;;24.43;;
16460;SDS011;8341;42.048;24.650;2023-01-26T14:33:31;36.13;;;18.80;;
16460;SDS011;8341;42.048;24.650;2023-01-26T14:36:00;34.60;;;16.23;;
16460;SDS011;8341;42.048;24.650;2023-01-26T14:38:28;42.50;;;14.20;;
16460;SDS011;8341;42.048;24.650;2023-01-26T14:40:57;29.47;;;14.70;;
16460;SDS011;8341;42.048;24.650;2023-01-26T14:43:26;28.80;;;15.03;;
16460;SDS011;8341;42.048;24.650;2023-01-26T14:45:54;30.10;;;14.70;;
16460;SDS011;8341;42.048;24.650;2023-01-26T14:48:42;29.57;;;15.03;;
16460;SDS011;8341;42.048;24.650;2023-01-26T14:51:15;48.10;;;24.97;;
16460;SDS011;8341;42.048;24.650;2023-01-26T14:53:49;31.10;;;15.43;;
16460;SDS011;8341;42.048;24.650;2023-01-26T14:56:19;23.97;;;14.83;;
16460;SDS011;8341;42.048;24.650;2023-01-26T14:58:49;22.23;;;11.17;;
16460;SDS011;8341;42.048;24.650;2023-01-26T15:01:21;23.47;;;13.47;;
16460;SDS011;8341;42.048;24.650;2023-01-26T15:03:50;23.53;;;13.00;;
16460;SDS011;8341;42.048;24.650;2023-01-26T15:06:24;21.30;;;11.57;;
16460;SDS011;8341;42.048;24.650;2023-01-26T15:08:54;22.33;;;12.73;;